createdAt,value
2023-07-21T00:01:05.517Z,3.83
2023-07-21T00:03:33.727Z,3.95
2023-07-21T00:06:01.290Z,3.80
2023-07-21T00:08:30.335Z,3.74
2023-07-21T00:10:58.639Z,3.91
2023-07-21T00:13:29.010Z,4.04
2023-07-21T00:15:56.871Z,3.81
2023-07-21T00:18:24.625Z,3.84
2023-07-21T00:20:51.394Z,4.26
2023-07-21T00:23:20.818Z,4.12
2023-07-21T00:25:48.223Z,4.30
2023-07-21T00:28:15.855Z,4.19
2023-07-21T00:30:42.587Z,4.08
2023-07-21T00:33:09.216Z,4.03
2023-07-21T00:35:36.110Z,4.06
2023-07-21T00:38:03.099Z,4.22
2023-07-21T00:40:31.524Z,4.33
2023-07-21T00:43:01.177Z,4.36
2023-07-21T00:45:29.460Z,4.30
2023-07-21T00:47:57.084Z,4.52
2023-07-21T00:50:25.432Z,4.29
2023-07-21T00:52:52.624Z,4.36
2023-07-21T00:55:19.642Z,4.10
2023-07-21T00:57:46.815Z,4.15
2023-07-21T01:00:14.155Z,4.24
2023-07-21T01:02:42.338Z,4.34
2023-07-21T01:05:10.421Z,4.27
2023-07-21T01:07:39.506Z,4.42
2023-07-21T01:10:09.806Z,4.36
2023-07-21T01:12:36.694Z,4.39
2023-07-21T01:15:03.802Z,4.30
2023-07-21T01:17:31.368Z,4.58
2023-07-21T01:20:01.324Z,4.75
2023-07-21T01:22:37.943Z,5.27
2023-07-21T01:25:12.253Z,5.18
2023-07-21T01:27:43.375Z,5.32
2023-07-21T01:30:19.567Z,5.35
2023-07-21T01:32:48.080Z,5.35
2023-07-21T01:35:18.130Z,5.54
2023-07-21T01:37:46.856Z,5.71
2023-07-21T01:40:16.477Z,5.59
2023-07-21T01:42:45.570Z,5.81
2023-07-21T01:45:14.195Z,5.55
2023-07-21T01:47:41.187Z,5.34
2023-07-21T01:50:10.799Z,5.64
2023-07-21T01:52:38.469Z,5.95
2023-07-21T01:55:12.038Z,5.37
2023-07-21T01:57:44.868Z,5.84
2023-07-21T02:00:14.226Z,5.77
2023-07-21T02:02:42.720Z,5.45
2023-07-21T02:05:28.340Z,5.60
2023-07-21T02:07:55.121Z,6.15
2023-07-21T02:10:22.322Z,6.09
2023-07-21T02:12:49.337Z,5.84
2023-07-21T02:15:16.005Z,5.69
2023-07-21T02:17:42.767Z,5.35
2023-07-21T02:20:12.801Z,5.70
2023-07-21T02:22:41.586Z,6.05
2023-07-21T02:25:11.801Z,6.31
2023-07-21T02:27:38.918Z,6.27
2023-07-21T02:30:07.266Z,6.24
2023-07-21T02:32:33.931Z,6.17
2023-07-21T02:35:00.751Z,6.25
2023-07-21T02:37:27.413Z,5.93
2023-07-21T02:39:54.585Z,5.18
2023-07-21T02:42:21.477Z,5.35
2023-07-21T02:44:48.163Z,5.00
2023-07-21T02:47:18.082Z,5.12
2023-07-21T02:49:45.045Z,5.27
2023-07-21T02:52:12.500Z,5.33
2023-07-21T02:54:39.198Z,5.33
2023-07-21T02:57:08.114Z,5.18
2023-07-21T02:59:35.779Z,5.21
2023-07-21T03:02:02.567Z,4.89
2023-07-21T03:04:29.633Z,5.24
2023-07-21T03:06:56.807Z,5.15
2023-07-21T03:09:23.623Z,5.39
2023-07-21T03:11:50.231Z,5.70
2023-07-21T03:14:16.859Z,5.36
2023-07-21T03:16:44.002Z,5.33
2023-07-21T03:19:11.796Z,5.61
2023-07-21T03:21:38.445Z,5.46
2023-07-21T03:24:07.030Z,5.30
2023-07-21T03:26:33.623Z,5.48
2023-07-21T03:29:00.217Z,5.20
2023-07-21T03:31:27.081Z,5.44
2023-07-21T03:33:53.722Z,5.47
2023-07-21T03:36:22.217Z,5.34
2023-07-21T03:38:49.161Z,5.27
2023-07-21T03:41:15.982Z,5.02
2023-07-21T03:43:42.636Z,5.31
2023-07-21T03:46:09.647Z,5.30
2023-07-21T03:48:36.342Z,5.47
2023-07-21T03:51:07.374Z,5.24
2023-07-21T03:53:36.823Z,5.06
2023-07-21T03:56:05.206Z,4.67
2023-07-21T03:58:31.996Z,4.28
2023-07-21T04:01:00.402Z,4.01
2023-07-21T04:03:27.782Z,3.05
2023-07-21T04:05:54.796Z,4.41
2023-07-21T04:08:21.416Z,4.76
2023-07-21T04:10:48.061Z,5.04
2023-07-21T04:13:14.804Z,4.94
2023-07-21T04:15:41.467Z,5.18
2023-07-21T04:18:08.184Z,4.92
2023-07-21T04:20:34.926Z,5.16
2023-07-21T04:23:01.575Z,5.30
2023-07-21T04:25:28.238Z,5.43
2023-07-21T04:27:56.097Z,5.86
2023-07-21T04:30:24.221Z,5.52
2023-07-21T04:32:51.402Z,5.65
2023-07-21T04:35:18.526Z,5.67
2023-07-21T04:37:45.533Z,5.67
2023-07-21T04:40:13.060Z,5.42
2023-07-21T04:42:40.525Z,5.71
2023-07-21T04:45:12.954Z,5.79
2023-07-21T04:47:41.441Z,5.90
2023-07-21T04:50:09.627Z,6.32
2023-07-21T04:52:38.061Z,5.86
2023-07-21T04:55:06.827Z,6.00
2023-07-21T04:57:35.285Z,6.00
2023-07-21T05:00:02.498Z,5.65
2023-07-21T05:02:30.347Z,5.91
2023-07-21T05:05:00.934Z,5.80
2023-07-21T05:07:27.672Z,5.71
2023-07-21T05:09:56.962Z,5.73
2023-07-21T05:12:26.965Z,6.02
2023-07-21T05:14:53.592Z,5.96
2023-07-21T05:17:20.396Z,6.10
2023-07-21T05:19:47.258Z,6.01
2023-07-21T05:22:16.837Z,6.08
2023-07-21T05:24:44.251Z,6.54
2023-07-21T05:27:11.254Z,6.09
2023-07-21T05:29:38.408Z,6.12
2023-07-21T05:32:06.899Z,6.27
2023-07-21T05:34:34.031Z,6.31
2023-07-21T05:37:01.900Z,6.54
2023-07-21T05:39:31.575Z,6.25
2023-07-21T05:41:59.186Z,6.50
2023-07-21T05:44:27.353Z,6.73
2023-07-21T05:46:54.983Z,6.64
2023-07-21T05:49:22.025Z,6.36
2023-07-21T05:51:49.503Z,6.56
2023-07-21T05:54:16.198Z,6.63
2023-07-21T05:56:42.883Z,6.86
2023-07-21T05:59:09.643Z,6.73
2023-07-21T06:01:37.393Z,7.06
2023-07-21T06:04:07.524Z,6.65
2023-07-21T06:06:34.550Z,6.56
2023-07-21T06:09:01.278Z,6.81
2023-07-21T06:11:28.340Z,6.75
2023-07-21T06:13:55.741Z,6.80
2023-07-21T06:16:26.364Z,6.77
2023-07-21T06:18:53.625Z,6.87
2023-07-21T06:21:21.933Z,7.07
2023-07-21T06:23:49.342Z,7.22
2023-07-21T06:26:16.256Z,7.07
2023-07-21T06:28:42.926Z,6.82
2023-07-21T06:31:11.192Z,5.96
2023-07-21T06:33:38.515Z,5.61
2023-07-21T06:36:05.934Z,5.86
2023-07-21T06:38:32.590Z,6.27
2023-07-21T06:40:59.545Z,6.45
2023-07-21T06:43:26.375Z,6.02
2023-07-21T06:45:53.050Z,6.03
2023-07-21T06:48:19.733Z,5.77
2023-07-21T06:50:47.215Z,5.93
2023-07-21T06:53:14.237Z,5.46
2023-07-21T06:55:41.637Z,6.09
2023-07-21T06:58:10.034Z,6.28
2023-07-21T07:00:36.724Z,6.39
2023-07-21T07:03:03.554Z,6.22
2023-07-21T07:05:30.277Z,6.27
2023-07-21T07:07:56.894Z,5.72
2023-07-21T07:10:23.507Z,5.67
2023-07-21T07:12:51.663Z,5.97
2023-07-21T07:15:18.355Z,6.83
2023-07-21T07:17:45.076Z,6.89
2023-07-21T07:20:12.550Z,7.10
2023-07-21T07:22:39.728Z,6.99
2023-07-21T07:25:07.011Z,6.94
2023-07-21T07:27:33.759Z,6.07
2023-07-21T07:30:00.443Z,5.17
2023-07-21T07:32:27.016Z,5.03
2023-07-21T07:34:57.745Z,5.22
2023-07-21T07:37:25.467Z,4.98
2023-07-21T07:39:52.594Z,4.86
2023-07-21T07:42:19.672Z,5.88
2023-07-21T07:44:46.327Z,5.82
2023-07-21T07:47:12.945Z,5.55
2023-07-21T07:49:39.581Z,4.69
2023-07-21T07:52:09.829Z,4.47
2023-07-21T07:54:36.948Z,4.30
2023-07-21T07:57:03.689Z,4.49
2023-07-21T07:59:30.397Z,4.53
2023-07-21T08:01:58.288Z,4.87
2023-07-21T08:04:25.101Z,4.06
2023-07-21T08:06:51.941Z,4.65
2023-07-21T08:09:18.777Z,4.80
2023-07-21T08:11:45.402Z,2.96
2023-07-21T08:14:12.035Z,1.94
2023-07-21T08:16:40.019Z,1.89
2023-07-21T08:19:07.050Z,1.89
2023-07-21T08:21:33.820Z,1.91
2023-07-21T08:24:00.410Z,1.91
2023-07-21T08:26:27.069Z,2.11
2023-07-21T08:28:55.635Z,1.95
2023-07-21T08:31:22.612Z,1.76
2023-07-21T08:33:51.074Z,2.05
2023-07-21T08:36:17.676Z,2.02
2023-07-21T08:38:44.337Z,2.13
2023-07-21T08:41:14.661Z,1.99
2023-07-21T08:43:41.817Z,1.87
2023-07-21T08:46:09.682Z,1.78
2023-07-21T08:48:36.982Z,1.72
2023-07-21T08:51:04.798Z,1.64
2023-07-21T08:53:32.101Z,1.61
2023-07-21T08:56:00.507Z,1.76
2023-07-21T08:58:28.424Z,1.92
2023-07-21T09:00:56.908Z,2.01
2023-07-21T09:03:24.173Z,2.02
2023-07-21T09:05:51.920Z,1.87
2023-07-21T09:08:20.558Z,1.91
2023-07-21T09:10:47.194Z,2.14
2023-07-21T09:13:18.060Z,2.27
2023-07-21T09:15:52.402Z,2.19
2023-07-21T09:18:19.588Z,2.47
2023-07-21T09:20:47.335Z,2.65
2023-07-21T09:23:14.546Z,2.98
2023-07-21T09:25:52.985Z,2.77
2023-07-21T09:28:20.992Z,2.76
2023-07-21T09:30:52.590Z,2.59
2023-07-21T09:33:24.974Z,2.24
2023-07-21T09:36:03.688Z,2.03
2023-07-21T09:38:30.292Z,1.94
2023-07-21T09:41:08.206Z,1.98
2023-07-21T09:43:34.861Z,2.20
2023-07-21T09:46:10.543Z,2.14
2023-07-21T09:48:45.720Z,2.15
2023-07-21T09:51:12.607Z,2.03
2023-07-21T09:53:44.336Z,1.94
2023-07-21T09:56:12.955Z,2.08
2023-07-21T09:58:47.684Z,2.07
2023-07-21T10:01:16.213Z,1.93
2023-07-21T10:03:43.440Z,1.68
2023-07-21T10:06:11.022Z,1.53
2023-07-21T10:08:39.628Z,1.55
2023-07-21T10:11:10.521Z,1.61
2023-07-21T10:13:48.653Z,1.63
2023-07-21T10:16:16.260Z,1.65
2023-07-21T10:19:02.498Z,1.59
2023-07-21T10:21:36.000Z,1.91
2023-07-21T10:24:03.825Z,1.75
2023-07-21T10:26:33.711Z,1.64
2023-07-21T10:29:16.502Z,1.60
2023-07-21T10:31:57.385Z,1.60
2023-07-21T10:34:32.484Z,1.66
2023-07-21T10:37:03.232Z,1.63
2023-07-21T10:39:32.824Z,1.68
2023-07-21T10:42:04.837Z,1.60
2023-07-21T10:44:40.209Z,1.72
2023-07-21T10:47:15.149Z,1.54
2023-07-21T10:49:43.185Z,1.39
2023-07-21T10:52:10.584Z,1.45
2023-07-21T10:54:38.107Z,1.44
2023-07-21T10:57:05.266Z,1.51
2023-07-21T10:59:34.219Z,1.69
2023-07-21T11:02:03.909Z,1.83
2023-07-21T11:04:31.878Z,1.93
2023-07-21T11:06:59.908Z,1.83
2023-07-21T11:09:28.886Z,1.80
2023-07-21T11:11:58.357Z,1.82
2023-07-21T11:14:27.289Z,1.69
2023-07-21T11:16:53.958Z,1.81
2023-07-21T11:19:22.129Z,2.00
2023-07-21T11:21:51.697Z,1.92
2023-07-21T11:24:19.250Z,2.01
2023-07-21T11:26:48.146Z,1.96
2023-07-21T11:29:16.344Z,1.82
2023-07-21T11:31:43.553Z,2.12
2023-07-21T11:34:24.178Z,2.24
2023-07-21T11:37:01.864Z,2.11
2023-07-21T11:39:29.351Z,1.83
2023-07-21T11:41:57.969Z,2.39
2023-07-21T11:44:29.943Z,2.30
2023-07-21T11:47:11.747Z,2.07
2023-07-21T11:49:46.332Z,2.21
2023-07-21T11:52:26.368Z,2.37
2023-07-21T11:54:54.998Z,2.18
2023-07-21T11:57:21.649Z,2.15
2023-07-21T11:59:48.696Z,2.08
2023-07-21T12:02:20.008Z,1.99
2023-07-21T12:04:48.723Z,2.00
2023-07-21T12:07:15.463Z,1.92
2023-07-21T12:09:42.013Z,1.78
2023-07-21T12:12:09.322Z,1.60
2023-07-21T12:14:36.606Z,1.66
2023-07-21T12:17:05.604Z,1.82
2023-07-21T12:19:32.221Z,1.98
2023-07-21T12:21:59.030Z,2.28
2023-07-21T12:24:26.049Z,2.24
2023-07-21T12:26:52.877Z,2.56
2023-07-21T12:29:28.843Z,2.52
2023-07-21T12:32:05.431Z,2.27
2023-07-21T12:34:32.220Z,2.32
2023-07-21T12:36:59.336Z,2.29
2023-07-21T12:39:26.016Z,2.00
2023-07-21T12:41:53.244Z,2.12
2023-07-21T12:44:23.128Z,2.00
2023-07-21T12:46:49.923Z,2.11
2023-07-21T12:49:16.458Z,3.07
2023-07-21T12:51:44.514Z,2.35
2023-07-21T12:54:11.112Z,2.13
2023-07-21T12:56:37.702Z,2.10
2023-07-21T12:59:04.385Z,2.09
2023-07-21T13:01:31.046Z,2.13
2023-07-21T13:03:57.706Z,2.08
2023-07-21T13:06:24.803Z,2.18
2023-07-21T13:08:51.640Z,2.13
2023-07-21T13:11:18.172Z,2.27
2023-07-21T13:13:46.658Z,2.12
2023-07-21T13:16:13.436Z,2.15
2023-07-21T13:18:40.065Z,2.31
2023-07-21T13:21:06.686Z,2.37
2023-07-21T13:23:33.360Z,2.34
2023-07-21T13:26:00.443Z,2.34
2023-07-21T13:28:27.918Z,2.44
2023-07-21T13:30:55.299Z,2.30
2023-07-21T13:33:22.439Z,2.30
2023-07-21T13:35:50.315Z,2.25
2023-07-21T13:38:16.905Z,2.31
2023-07-21T13:40:43.450Z,2.45
2023-07-21T13:43:10.007Z,2.37
2023-07-21T13:45:36.636Z,2.59
2023-07-21T13:48:03.546Z,2.56
2023-07-21T13:50:30.299Z,2.66
2023-07-21T13:52:56.918Z,2.76
2023-07-21T13:55:23.642Z,2.74
2023-07-21T13:57:50.610Z,3.52
2023-07-21T14:00:22.555Z,3.90
2023-07-21T14:02:49.984Z,3.96
2023-07-21T14:05:16.858Z,5.26
2023-07-21T14:07:45.893Z,5.16
2023-07-21T14:10:13.120Z,4.84
2023-07-21T14:12:39.836Z,5.08
2023-07-21T14:15:09.322Z,5.20
2023-07-21T14:17:36.128Z,5.29
2023-07-21T14:20:08.251Z,5.24
2023-07-21T14:22:34.890Z,5.54
2023-07-21T14:25:01.557Z,5.15
2023-07-21T14:27:28.460Z,5.69
2023-07-21T14:29:55.030Z,5.66
2023-07-21T14:32:21.683Z,5.14
2023-07-21T14:34:48.378Z,5.73
2023-07-21T14:37:14.937Z,6.68
2023-07-21T14:39:41.547Z,7.52
2023-07-21T14:42:08.426Z,7.32
2023-07-21T14:44:37.297Z,7.45
2023-07-21T14:47:04.421Z,7.69
2023-07-21T14:49:31.187Z,7.88
2023-07-21T14:51:59.638Z,7.64
2023-07-21T14:54:26.260Z,7.67
2023-07-21T14:56:52.845Z,7.88
2023-07-21T14:59:19.506Z,8.10
2023-07-21T15:01:46.239Z,8.14
2023-07-21T15:04:12.821Z,7.66
2023-07-21T15:06:40.290Z,7.48
2023-07-21T15:09:09.999Z,7.43
2023-07-21T15:11:37.027Z,8.07
2023-07-21T15:14:03.857Z,7.88
2023-07-21T15:16:30.751Z,8.25
2023-07-21T15:18:57.456Z,7.95
2023-07-21T15:21:24.263Z,8.12
2023-07-21T15:23:51.085Z,7.92
2023-07-21T15:26:17.634Z,8.22
2023-07-21T15:28:44.220Z,8.15
2023-07-21T15:31:10.895Z,7.93
2023-07-21T15:33:37.611Z,7.84
2023-07-21T15:36:04.450Z,7.72
2023-07-21T15:38:31.871Z,7.84
2023-07-21T15:40:59.070Z,7.83
2023-07-21T15:43:26.035Z,8.65
2023-07-21T15:45:53.497Z,8.21
2023-07-21T15:48:20.062Z,8.43
2023-07-21T15:50:46.772Z,7.51
2023-07-21T15:53:13.431Z,7.88
2023-07-21T15:55:39.984Z,8.16
2023-07-21T15:58:07.460Z,8.92
2023-07-21T16:00:34.082Z,9.11
2023-07-21T16:03:00.754Z,9.42
2023-07-21T16:05:27.437Z,8.07
2023-07-21T16:07:54.077Z,8.05
2023-07-21T16:10:20.709Z,8.01
2023-07-21T16:12:47.306Z,8.52
2023-07-21T16:15:16.941Z,9.17
2023-07-21T16:17:44.171Z,9.40
2023-07-21T16:20:13.445Z,9.63
2023-07-21T16:22:41.511Z,8.68
2023-07-21T16:25:09.422Z,8.52
2023-07-21T16:27:36.621Z,7.91
2023-07-21T16:30:03.444Z,8.55
2023-07-21T16:32:30.185Z,8.71
2023-07-21T16:34:57.034Z,9.04
2023-07-21T16:37:23.718Z,9.11
2023-07-21T16:39:54.125Z,8.69
2023-07-21T16:42:20.821Z,9.27
2023-07-21T16:44:47.439Z,9.10
2023-07-21T16:47:14.000Z,8.56
2023-07-21T16:49:40.670Z,8.72
2023-07-21T16:52:07.910Z,9.10
2023-07-21T16:54:34.518Z,8.86
2023-07-21T16:57:01.126Z,8.74
2023-07-21T16:59:30.364Z,8.36
2023-07-21T17:01:58.674Z,7.01
2023-07-21T17:04:25.266Z,5.59
2023-07-21T17:06:51.825Z,5.25
2023-07-21T17:09:19.321Z,4.89
2023-07-21T17:11:45.963Z,4.63
2023-07-21T17:14:12.562Z,4.70
2023-07-21T17:16:39.305Z,4.44
2023-07-21T17:19:06.079Z,4.44
2023-07-21T17:21:32.657Z,4.35
2023-07-21T17:23:59.284Z,3.95
2023-07-21T17:26:25.948Z,3.85
2023-07-21T17:28:52.529Z,3.52
2023-07-21T17:31:19.171Z,3.71
2023-07-21T17:33:47.646Z,3.56
2023-07-21T17:36:14.348Z,3.72
2023-07-21T17:38:42.113Z,3.48
2023-07-21T17:41:09.234Z,3.89
2023-07-21T17:43:35.900Z,3.52
2023-07-21T17:46:03.922Z,3.69
2023-07-21T17:48:30.726Z,3.60
2023-07-21T17:50:57.447Z,3.76
2023-07-21T17:53:24.281Z,3.61
2023-07-21T17:55:51.230Z,3.77
2023-07-21T17:58:19.896Z,3.77
2023-07-21T18:00:46.536Z,3.77
2023-07-21T18:03:13.652Z,3.73
2023-07-21T18:05:40.665Z,3.90
2023-07-21T18:08:08.429Z,3.83
2023-07-21T18:10:35.726Z,3.90
2023-07-21T18:13:02.501Z,3.67
2023-07-21T18:15:36.929Z,3.75
2023-07-21T18:18:04.354Z,3.58
2023-07-21T18:20:35.158Z,4.09
2023-07-21T18:23:03.192Z,4.73
2023-07-21T18:25:29.962Z,5.09
2023-07-21T18:27:57.060Z,4.28
2023-07-21T18:30:23.777Z,4.33
2023-07-21T18:32:51.349Z,4.33
2023-07-21T18:35:18.162Z,4.17
2023-07-21T18:37:44.752Z,4.23
2023-07-21T18:40:17.690Z,4.55
2023-07-21T18:42:50.544Z,4.82
2023-07-21T18:45:22.481Z,4.77
2023-07-21T18:47:50.091Z,4.59
2023-07-21T18:50:21.572Z,5.04
2023-07-21T18:52:52.781Z,4.82
2023-07-21T18:55:20.802Z,4.67
2023-07-21T18:57:48.938Z,4.70
2023-07-21T19:00:16.924Z,4.34
2023-07-21T19:02:44.394Z,4.57
2023-07-21T19:05:11.119Z,4.66
2023-07-21T19:07:37.727Z,4.56
2023-07-21T19:10:06.484Z,4.34
2023-07-21T19:12:33.285Z,4.48
2023-07-21T19:15:00.389Z,4.72
2023-07-21T19:17:27.917Z,4.43
2023-07-21T19:19:54.565Z,4.49
2023-07-21T19:22:21.596Z,4.80
2023-07-21T19:24:48.202Z,6.83
2023-07-21T19:27:14.776Z,6.66
2023-07-21T19:29:41.973Z,4.88
2023-07-21T19:32:11.744Z,5.16
2023-07-21T19:34:38.852Z,5.06
2023-07-21T19:37:05.864Z,5.18
2023-07-21T19:39:33.012Z,5.29
2023-07-21T19:42:00.132Z,5.31
2023-07-21T19:44:26.853Z,5.37
2023-07-21T19:46:53.908Z,5.14
2023-07-21T19:49:20.750Z,5.93
2023-07-21T19:51:52.083Z,5.40
2023-07-21T19:54:20.068Z,5.71
2023-07-21T19:56:48.096Z,5.57
2023-07-21T19:59:15.857Z,5.47
2023-07-21T20:01:42.980Z,5.97
2023-07-21T20:04:10.470Z,6.09
2023-07-21T20:06:37.351Z,6.21
2023-07-21T20:09:05.552Z,6.98
2023-07-21T20:11:32.933Z,7.80
2023-07-21T20:13:59.550Z,8.75
2023-07-21T20:16:26.227Z,9.40
2023-07-21T20:18:52.898Z,9.61
2023-07-21T20:21:19.506Z,8.77
2023-07-21T20:23:46.120Z,8.29
2023-07-21T20:26:13.061Z,8.50
2023-07-21T20:28:39.697Z,9.30
2023-07-21T20:31:06.378Z,8.83
2023-07-21T20:33:33.510Z,8.76
2023-07-21T20:36:00.140Z,8.98
2023-07-21T20:38:27.583Z,8.45
2023-07-21T20:41:04.356Z,8.75
2023-07-21T20:43:31.149Z,9.23
2023-07-21T20:45:58.741Z,9.45
2023-07-21T20:48:25.550Z,9.09
2023-07-21T20:50:56.532Z,9.50
2023-07-21T20:53:24.184Z,9.29
2023-07-21T20:55:52.656Z,8.92
2023-07-21T20:58:20.009Z,9.33
2023-07-21T21:00:51.400Z,9.20
2023-07-21T21:03:22.254Z,8.98
2023-07-21T21:05:58.772Z,8.88
2023-07-21T21:08:25.634Z,8.69
2023-07-21T21:10:53.301Z,8.14
2023-07-21T21:13:20.112Z,8.32
2023-07-21T21:15:47.478Z,8.26
2023-07-21T21:18:14.946Z,8.38
2023-07-21T21:20:41.768Z,8.52
2023-07-21T21:23:08.401Z,8.24
2023-07-21T21:25:35.912Z,7.25
2023-07-21T21:28:02.696Z,7.68
2023-07-21T21:30:29.294Z,8.23
2023-07-21T21:32:55.924Z,7.57
2023-07-21T21:35:22.541Z,7.11
2023-07-21T21:37:49.795Z,7.32
2023-07-21T21:40:16.373Z,7.22
2023-07-21T21:42:42.980Z,6.62
2023-07-21T21:45:10.002Z,6.51
2023-07-21T21:47:36.578Z,6.78
2023-07-21T21:50:03.245Z,6.90
2023-07-21T21:52:29.880Z,6.92
2023-07-21T21:54:56.833Z,6.82
2023-07-21T21:57:23.409Z,6.39
2023-07-21T21:59:50.164Z,6.01
2023-07-21T22:02:16.777Z,6.24
2023-07-21T22:04:43.417Z,6.87
2023-07-21T22:07:10.125Z,6.54
2023-07-21T22:09:36.726Z,6.67
2023-07-21T22:12:03.680Z,6.68
2023-07-21T22:14:31.224Z,7.00
2023-07-21T22:16:57.933Z,6.78
2023-07-21T22:19:24.480Z,6.91
2023-07-21T22:21:51.069Z,6.88
2023-07-21T22:24:17.728Z,6.87
2023-07-21T22:26:44.416Z,7.46
2023-07-21T22:29:11.040Z,6.83
2023-07-21T22:31:37.745Z,7.02
2023-07-21T22:34:05.743Z,7.20
2023-07-21T22:36:32.465Z,7.35
2023-07-21T22:38:59.513Z,7.06
2023-07-21T22:41:26.833Z,7.26
2023-07-21T22:43:54.135Z,7.44
2023-07-21T22:46:20.861Z,7.57
2023-07-21T22:48:47.573Z,7.39
2023-07-21T22:51:14.223Z,7.45
2023-07-21T22:53:41.536Z,7.42
2023-07-21T22:56:09.401Z,7.30
2023-07-21T22:58:36.803Z,7.78
2023-07-21T23:01:07.903Z,8.03
2023-07-21T23:03:35.637Z,7.95
2023-07-21T23:06:06.235Z,7.53
2023-07-21T23:08:33.959Z,7.92
2023-07-21T23:11:00.562Z,8.26
2023-07-21T23:13:27.348Z,7.80
2023-07-21T23:15:54.016Z,7.90
2023-07-21T23:18:20.688Z,8.55
2023-07-21T23:20:47.391Z,7.80
2023-07-21T23:23:14.115Z,8.72
2023-07-21T23:25:42.285Z,7.87
2023-07-21T23:28:11.215Z,8.12
2023-07-21T23:30:38.159Z,7.74
2023-07-21T23:33:05.963Z,8.20
2023-07-21T23:35:32.665Z,8.48
2023-07-21T23:37:59.293Z,8.17
2023-07-21T23:40:25.860Z,8.83
2023-07-21T23:42:52.545Z,8.61
2023-07-21T23:45:19.212Z,8.68
2023-07-21T23:47:50.258Z,9.15
2023-07-21T23:50:17.432Z,8.86
2023-07-21T23:52:44.111Z,9.54
2023-07-21T23:55:10.707Z,9.33
2023-07-21T23:57:37.332Z,8.66
